Anza Borrego Desert State Park, California Weather observations

Data are for 10 minute period ending at time listed.
 Day   Time   Solar   Ave.   Ave.  Ave.  Vector  Max.   Baro.   Total    
  of    of     Rad.   Air    Rel.  Wind   Wind   Wind  Press.  Precip.   
Year   Day            Temp.  Hum.  Speed  Dir.   Gust                    
2017   (PST)  Kw/m2    F      %     mph   deg.    mph    mb.     in.     
-------------------------------------------------------------------------
 293    0:00   0.00   71.8    40    2.0   144     5.6   977.5    0.00 
 293    0:10   0.00   71.1    41    3.5   153     7.8   977.5    0.00 
 293    0:20   0.00   71.7    41    8.9   141    13.7   977.7    0.00 
 293    0:30   0.00   72.6    41    9.9   116    12.6   977.8    0.00 
 293    0:40   0.00   73.1    40    8.7   113    15.3   977.9    0.00 
 293    0:50   0.00   72.0    42    5.5    71    14.5   978.1    0.00 
 293    1:00   0.00   74.2    40    6.6    68    16.8   978.1    0.00 
 293    1:10   0.00   71.5    44    4.5    47     8.7   978.1    0.00 
 293    1:20   0.00   71.5    45    5.5   106    10.7   978.2    0.00 
 293    1:30   0.00   72.2    44    3.8    25     7.7   978.2    0.00 
 293    1:40   0.00   72.2    44    3.3    10     6.7   978.2    0.00 
 293    1:50   0.00   72.1    44    7.3    42    13.0   978.1    0.00 
 293    2:00   0.00   74.0    42    8.7     8    14.5   978.0    0.00 
 293    2:10   0.00   72.2    45   14.2    49    20.2   978.1    0.00 
 293    2:20   0.00   70.1    49   11.5    94    16.5   978.0    0.00 
 293    2:30   0.00   69.5    50    8.1    72    12.8   978.0    0.00 
 293    2:40   0.00   68.7    52    5.5    37    13.7   978.1    0.00 
 293    2:50   0.00   67.6    54    4.6   165     8.5   978.1    0.00 
 293    3:00   0.00   67.7    54    9.7   160    15.6   978.3    0.00 
 293    3:10   0.00   68.9    53    5.3    10    10.9   978.2    0.00 
 293    3:20   0.00   68.8    53    5.8   181    12.7   978.3    0.00 
 293    3:30   0.00   68.2    55    7.7   171    14.4   978.5    0.00 
 293    3:40   0.00   66.8    57    5.3   151    11.7   978.5    0.00 
 293    3:50   0.00   66.7    58    8.1   146    14.7   978.5    0.00 
 293    4:00   0.00   67.6    57   10.2   120    16.2   978.6    0.00 
 293    4:10   0.00   67.2    58    9.1   118    14.5   978.6    0.00 
 293    4:20   0.00   66.7    58    4.5    99     7.3   978.6    0.00 
 293    4:30   0.00   65.9    59    2.5   232     6.6   978.6    0.00 
 293    4:40   0.00   65.7    60    4.4   164     6.6   978.6    0.00 
 293    4:50   0.00   65.7    60    5.3   178     7.7   978.5    0.00 
 293    5:00   0.00   65.8    61    6.8   178     8.8   978.6    0.00 
 293    5:10   0.00   66.1    60    6.3   160    13.7   978.6    0.00 
 293    5:20   0.00   67.4    58    7.7   115    14.5   978.6    0.00 
 293    5:30   0.00   66.8    59    3.5    34     8.8   978.7    0.00 
 293    5:40   0.00   66.4    60    2.7   345     6.0   978.9    0.00 
 293    5:50   0.00   66.3    60    1.4    96     4.2   978.9    0.00 
 293    6:00   0.01   65.9    61    2.7   275     5.0   979.0    0.00 
 293    6:10   0.02   66.5    60    3.5    41     5.4   979.2    0.00 
 293    6:20   0.04   68.0    57    3.4   147     7.4   979.4    0.00 
 293    6:30   0.06   69.1    54    8.1   124    16.7   979.4    0.00 
 293    6:40   0.07   69.7    53    8.6    60    12.1   979.6    0.00 
 293    6:50   0.08   70.1    52    5.3    81    10.3   979.9    0.00 
 293    7:00   0.13   71.6    48    3.3   347     9.8   980.1    0.00 
 293    7:10   0.18   71.9    46    5.9   228    14.2   980.3    0.00 
 293    7:20   0.20   71.8    47    6.1   242    19.2   980.5    0.00 
 293    7:30   0.25   70.4    50   14.8   236    22.4   980.4    0.00 
 293    7:40   0.29   70.1    51   17.2   227    26.4   980.6    0.00 
 293    7:50   0.34   70.3    50   14.9   227    25.3   980.9    0.00 
 293    8:00   0.39   70.9    48   15.7   222    25.0   981.1    0.00 
 293    8:10   0.40   71.4    47   14.1   226    25.2   981.2    0.00 
 293    8:20   0.44   71.7    46   13.6   222    25.3   981.1    0.00 
 293    8:30   0.48   72.0    46   10.8   221    16.1   981.0    0.00 
 293    8:40   0.45   72.5    45   10.4   218    18.6   981.0    0.00 
 293    8:50   0.46   72.6    45   10.3   228    21.5   981.0    0.00 
 293    9:00   0.46   72.6    45   12.8   230    17.7   981.1    0.00 
 293    9:10   0.50   72.7    44   12.2   226    20.6   981.2    0.00 
 293    9:20   0.61   74.0    42    7.0   243    11.7   981.3    0.00 
 293    9:30   0.65   73.8    43   10.4   218    15.4   981.0    0.00 
 293    9:40   0.64   73.1    44    7.4   308    14.2   980.9    0.00 
 293    9:50   0.67   73.7    43   12.9   296    25.4   980.7    0.00 
 293   10:00   0.66   74.0    42   13.2   307    21.2   980.4    0.00 
 293   10:10   0.71   74.3    42    7.6   306    21.0   980.3    0.00 
 293   10:20   0.73   75.3    41   11.5   223    18.9   980.3    0.00 
 293   10:30   0.76   75.0    42    9.9   251    19.5   980.3    0.00 
 293   10:40   0.69   74.3    42   11.9   296    21.6   980.2    0.00 
 293   10:50   0.77   73.8    42   13.3   304    24.5   980.2    0.00 
 293   11:00   0.71   73.7    42   15.7   315    40.3   980.0    0.00 
 293   11:10   0.81   74.0    41   15.8   320    24.7   980.0    0.00 
 293   11:20   0.70   74.1    41   14.9   314    24.2   979.8    0.00 
 293   11:30   0.68   73.8    41   15.2   317    25.4   979.5    0.00 
 293   11:40   0.80   74.8    40    9.6   357    19.9   979.2    0.00 
 293   11:50   0.77   75.0    39    9.7   331    22.9   979.1    0.00 
 293   12:00   0.78   75.3    38   10.5   344    17.3   978.8    0.00 
 293   12:10   0.66   75.4    38   11.7   336    23.5   978.6    0.00 
 293   12:20   0.72   75.3    38    9.6   334    20.1   978.5    0.00 
 293   12:30   0.75   75.3    38    9.7   324    19.6   978.2    0.00 
 293   12:40   0.70   75.3    38    5.8   294    16.9   977.9    0.00 
 293   12:50   0.70   76.2    37   12.8   340    22.8   978.0    0.00 
 293   13:00   0.67   75.5    38   12.7   322    23.2   977.7    0.00 
 293   13:10   0.70   75.8    37   12.6   333    18.9   977.5    0.00 
 293   13:20   0.60   76.2    36   15.2   336    22.1   977.7    0.00 
 293   13:30   0.52   75.0    38   14.4   322    28.7   977.7    0.00 
 293   13:40   0.36   74.5    38   14.7   332    29.8   977.5    0.00 
 293   13:50   0.26   74.4    38   12.6   331    23.2   977.4    0.00 
 293   14:00   0.45   74.8    38   14.2   334    23.6   977.4    0.00 
 293   14:10   0.49   75.1    38   13.7   333    21.2   977.4    0.00 
 293   14:20   0.51   75.8    37   13.4   320    20.9   977.4    0.00 
 293   14:30   0.50   75.7    37   14.4   327    27.2   977.5    0.00 
 293   14:40   0.49   75.2    38   18.1   332    26.0   977.5    0.00 
 293   14:50   0.45   75.0    38   16.2   334    27.0   977.6    0.00 
 293   15:00   0.41   74.7    39   16.2   331    25.0   977.6    0.00 
 293   15:10   0.38   75.0    38   13.3   337    21.2   977.5    0.00 
 293   15:20   0.33   75.3    37    8.8   355    18.6   977.5    0.00 
 293   15:30   0.30   75.2    37   10.3   353    16.9   977.4    0.00 
 293   15:40   0.26   74.3    38   13.6   324    20.5   977.1    0.00 
 293   15:50   0.24   73.7    39   14.5   333    26.8   977.3    0.00 
 293   16:00   0.20   73.4    40   10.2   316    17.2   977.3    0.00 
 293   16:10   0.13   72.8    40   15.9   312    23.9   977.2    0.00 
 293   16:20   0.03   71.6    41   13.2   325    22.9   977.3    0.00 
 293   16:30   0.01   71.1    42   13.2   318    23.0   977.2    0.00 
 293   16:40   0.01   70.7    42   12.1   320    21.0   977.4    0.00 
 293   16:50   0.01   70.5    43   13.9   314    21.9   977.5    0.00 
 293   17:00   0.00   70.6    42   13.5   318    22.6   977.6    0.00 
 293   17:10   0.00   70.4    42   12.1   308    21.0   977.7    0.00 
 293   17:20   0.00   70.4    42   13.2   297    19.6   978.1    0.00 
 293   17:30   0.00   70.0    43   13.8   299    22.5   978.3    0.00 
 293   17:40   0.00   70.0    43   12.8   322    21.3   978.3    0.00 
 293   17:50   0.00   69.5    45    8.5   297    14.7   978.6    0.00 
 293   18:00   0.00   69.0    46    4.7   276    10.5   978.9    0.00 
 293   18:10   0.00   69.0    46   10.9   325    17.8   978.8    0.00 
 293   18:20   0.00   68.8    46    8.2   269    15.3   979.0    0.00 
 293   18:30   0.00   69.0    44    3.3   308     9.5   979.2    0.00 
 293   18:40   0.00   68.0    48    6.1   238     9.1   979.3    0.00 
 293   18:50   0.00   67.6    48    2.1   223     6.6   979.3    0.00 
 293   19:00   0.00   67.6    48    4.5   226    10.6   979.4    0.00 
 293   19:10   0.00   67.2    49    7.8   230    17.0   979.6    0.00 
 293   19:20   0.00   67.1    50    6.6   246    13.9   979.6    0.00 
 293   19:30   0.00   67.7    47    9.3   279    14.9   979.5    0.00 
 293   19:40   0.00   67.6    48    9.7   261    17.5   979.8    0.00 
 293   19:50   0.00   66.3    52   12.0   232    18.8   979.9    0.00 
 293   20:00   0.00   66.0    53   17.1   210    28.7   979.7    0.00 
 293   20:10   0.00   65.8    54   19.0   211    30.6   979.6    0.00 
 293   20:20   0.00   65.8    53   15.5   226    27.0   979.7    0.00 
 293   20:30   0.00   65.9    54   14.7   224    27.5   979.9    0.00 
 293   20:40   0.00   65.2    56   21.1   214    33.7   979.8    0.00 
 293   20:50   0.00   65.4    55   17.6   219    32.9   980.0    0.00 
 293   21:00   0.00   65.9    53   14.0   218    29.4   980.0    0.00 
 293   21:10   0.00   65.8    53   10.9   197    27.7   980.0    0.00 
 293   21:20   0.00   65.9    53   13.9   211    37.0   980.0    0.00 
 293   21:30   0.00   65.1    55   28.8   226    44.5   979.9    0.00 
 293   21:40   0.00   64.9    55   24.6   234    40.8   979.7    0.00 
 293   21:50   0.00   65.7    51    7.8   299    23.6   979.7    0.00 
 293   22:00   0.00   67.7    44    8.8   356    21.9   979.8    0.00 
 293   22:10   0.00   67.6    44    5.6   352    15.6   979.7    0.00 
 293   22:20   0.00   67.5    44    5.1   234    11.8   979.8    0.00 
 293   22:30   0.00   67.8    43    5.1   141    15.2   979.7    0.00 
 293   22:40   0.00   67.4    44    6.5   172    13.1   979.7    0.00 
 293   22:50   0.00   67.3    43    6.6   133    10.3   979.6    0.00 
 293   23:00   0.00   67.6    42    4.1   143     8.7   979.5    0.00 
 293   23:10   0.00   66.7    44    6.4   170     9.9   979.5    0.00 
 293   23:20   0.00   66.0    45    6.6    68    11.8   979.7    0.00 
 293   23:30   0.00   67.2    43    9.5    75    20.2   979.8    0.00 
 293   23:40   0.00   66.5    45    7.3    78    12.9   980.1    0.00 
 293   23:50   0.00   65.5    48    6.2    82    11.5   980.2    0.00 

Return to Anza Borrego Desert State Park graphs page.


Western Regional Climate Center,wrcc@dri.edu